sensor_id;sensor_type;location;lat;lon;timestamp;temperature;humidity
24017;DHT22;12222;50.090;19.702;2022-07-06T00:02:21;16.20;99.90
24017;DHT22;12222;50.090;19.702;2022-07-06T00:07:42;16.20;99.90
24017;DHT22;12222;50.090;19.702;2022-07-06T00:13:03;16.20;99.90
24017;DHT22;12222;50.090;19.702;2022-07-06T00:18:23;16.10;99.90
24017;DHT22;12222;50.090;19.702;2022-07-06T00:23:44;16.30;99.90
24017;DHT22;12222;50.090;19.702;2022-07-06T00:29:05;16.40;99.90
24017;DHT22;12222;50.090;19.702;2022-07-06T00:34:25;16.40;99.90
24017;DHT22;12222;50.090;19.702;2022-07-06T00:39:46;16.40;99.90
24017;DHT22;12222;50.090;19.702;2022-07-06T00:45:07;16.50;99.90
24017;DHT22;12222;50.090;19.702;2022-07-06T00:50:28;16.50;99.90
24017;DHT22;12222;50.090;19.702;2022-07-06T00:55:49;16.50;99.90
24017;DHT22;12222;50.090;19.702;2022-07-06T01:01:10;16.50;99.90
24017;DHT22;12222;50.090;19.702;2022-07-06T01:06:30;16.50;99.90
24017;DHT22;12222;50.090;19.702;2022-07-06T01:11:52;16.60;99.90
24017;DHT22;12222;50.090;19.702;2022-07-06T01:17:14;16.70;99.90
24017;DHT22;12222;50.090;19.702;2022-07-06T01:22:35;16.70;99.90
24017;DHT22;12222;50.090;19.702;2022-07-06T01:27:56;16.60;99.90
24017;DHT22;12222;50.090;19.702;2022-07-06T01:33:17;16.60;99.90
24017;DHT22;12222;50.090;19.702;2022-07-06T01:38:45;16.60;99.90
24017;DHT22;12222;50.090;19.702;2022-07-06T01:44:06;16.60;99.90
24017;DHT22;12222;50.090;19.702;2022-07-06T01:49:27;16.60;99.90
24017;DHT22;12222;50.090;19.702;2022-07-06T01:54:47;16.60;99.90
24017;DHT22;12222;50.090;19.702;2022-07-06T02:00:08;16.60;99.90
24017;DHT22;12222;50.090;19.702;2022-07-06T02:05:32;16.60;99.90
24017;DHT22;12222;50.090;19.702;2022-07-06T02:10:52;16.60;99.90
24017;DHT22;12222;50.090;19.702;2022-07-06T02:16:13;16.60;99.90
24017;DHT22;12222;50.090;19.702;2022-07-06T02:21:35;16.60;99.90
24017;DHT22;12222;50.090;19.702;2022-07-06T02:26:55;16.60;99.90
24017;DHT22;12222;50.090;19.702;2022-07-06T02:32:17;16.50;99.90
24017;DHT22;12222;50.090;19.702;2022-07-06T02:37:38;16.50;99.90
24017;DHT22;12222;50.090;19.702;2022-07-06T02:42:59;16.40;99.90
24017;DHT22;12222;50.090;19.702;2022-07-06T02:48:21;16.40;99.90
24017;DHT22;12222;50.090;19.702;2022-07-06T02:53:44;16.40;99.90
24017;DHT22;12222;50.090;19.702;2022-07-06T02:59:04;16.30;99.90
24017;DHT22;12222;50.090;19.702;2022-07-06T03:04:33;16.40;99.90
24017;DHT22;12222;50.090;19.702;2022-07-06T03:09:53;16.40;99.90
24017;DHT22;12222;50.090;19.702;2022-07-06T03:15:13;16.40;99.90
24017;DHT22;12222;50.090;19.702;2022-07-06T03:20:37;16.40;99.90
24017;DHT22;12222;50.090;19.702;2022-07-06T03:26:00;16.30;99.90
24017;DHT22;12222;50.090;19.702;2022-07-06T03:31:22;16.30;99.90
24017;DHT22;12222;50.090;19.702;2022-07-06T03:36:43;16.30;99.90
24017;DHT22;12222;50.090;19.702;2022-07-06T03:42:05;16.40;99.90
24017;DHT22;12222;50.090;19.702;2022-07-06T03:47:26;16.50;99.90
24017;DHT22;12222;50.090;19.702;2022-07-06T03:52:47;16.40;99.90
24017;DHT22;12222;50.090;19.702;2022-07-06T03:58:09;16.60;99.90
24017;DHT22;12222;50.090;19.702;2022-07-06T04:03:32;16.80;99.90
24017;DHT22;12222;50.090;19.702;2022-07-06T04:08:55;16.70;99.90
24017;DHT22;12222;50.090;19.702;2022-07-06T04:14:16;16.40;99.90
24017;DHT22;12222;50.090;19.702;2022-07-06T04:19:37;16.80;99.90
24017;DHT22;12222;50.090;19.702;2022-07-06T04:24:58;17.10;99.90
24017;DHT22;12222;50.090;19.702;2022-07-06T04:30:19;17.60;99.90
24017;DHT22;12222;50.090;19.702;2022-07-06T04:35:40;19.10;99.90
24017;DHT22;12222;50.090;19.702;2022-07-06T04:41:01;21.40;99.90
24017;DHT22;12222;50.090;19.702;2022-07-06T04:46:22;20.80;99.90
24017;DHT22;12222;50.090;19.702;2022-07-06T04:51:46;19.20;99.90
24017;DHT22;12222;50.090;19.702;2022-07-06T04:57:07;17.50;99.90
24017;DHT22;12222;50.090;19.702;2022-07-06T05:02:33;17.30;99.90
24017;DHT22;12222;50.090;19.702;2022-07-06T05:07:54;18.80;99.90
24017;DHT22;12222;50.090;19.702;2022-07-06T05:13:15;20.10;99.90
24017;DHT22;12222;50.090;19.702;2022-07-06T05:18:36;19.20;99.90
24017;DHT22;12222;50.090;19.702;2022-07-06T05:23:58;17.80;99.90
24017;DHT22;12222;50.090;19.702;2022-07-06T05:29:19;18.10;99.90
24017;DHT22;12222;50.090;19.702;2022-07-06T05:34:40;21.20;99.90
24017;DHT22;12222;50.090;19.702;2022-07-06T05:40:01;23.00;99.90
24017;DHT22;12222;50.090;19.702;2022-07-06T05:45:22;24.30;99.90
24017;DHT22;12222;50.090;19.702;2022-07-06T05:50:45;23.10;99.90
24017;DHT22;12222;50.090;19.702;2022-07-06T05:56:07;21.20;99.90
24017;DHT22;12222;50.090;19.702;2022-07-06T06:01:30;20.40;99.90
24017;DHT22;12222;50.090;19.702;2022-07-06T06:07:00;20.90;99.90
24017;DHT22;12222;50.090;19.702;2022-07-06T06:12:20;20.90;99.90
24017;DHT22;12222;50.090;19.702;2022-07-06T06:17:41;20.50;99.90
24017;DHT22;12222;50.090;19.702;2022-07-06T06:23:02;19.60;99.90
24017;DHT22;12222;50.090;19.702;2022-07-06T06:28:25;19.90;99.90
24017;DHT22;12222;50.090;19.702;2022-07-06T06:33:46;20.10;99.90
24017;DHT22;12222;50.090;19.702;2022-07-06T06:39:07;22.00;99.90
24017;DHT22;12222;50.090;19.702;2022-07-06T06:44:27;24.10;99.90
24017;DHT22;12222;50.090;19.702;2022-07-06T06:49:48;25.10;99.90
24017;DHT22;12222;50.090;19.702;2022-07-06T06:55:09;23.20;99.90
24017;DHT22;12222;50.090;19.702;2022-07-06T07:00:29;22.80;99.90
24017;DHT22;12222;50.090;19.702;2022-07-06T07:05:50;22.10;99.90
24017;DHT22;12222;50.090;19.702;2022-07-06T07:11:11;21.50;99.90
24017;DHT22;12222;50.090;19.702;2022-07-06T07:16:31;21.40;99.90
24017;DHT22;12222;50.090;19.702;2022-07-06T07:21:52;21.50;99.90
24017;DHT22;12222;50.090;19.702;2022-07-06T07:27:12;21.00;99.90
24017;DHT22;12222;50.090;19.702;2022-07-06T07:32:33;21.00;99.90
24017;DHT22;12222;50.090;19.702;2022-07-06T07:37:54;21.20;99.90
24017;DHT22;12222;50.090;19.702;2022-07-06T07:43:14;21.00;99.90
24017;DHT22;12222;50.090;19.702;2022-07-06T07:48:35;21.10;99.90
24017;DHT22;12222;50.090;19.702;2022-07-06T07:53:56;21.30;99.90
24017;DHT22;12222;50.090;19.702;2022-07-06T07:59:16;21.50;99.90
24017;DHT22;12222;50.090;19.702;2022-07-06T08:04:39;20.90;99.90
24017;DHT22;12222;50.090;19.702;2022-07-06T08:09:59;20.70;99.90
24017;DHT22;12222;50.090;19.702;2022-07-06T08:15:20;20.10;99.90
24017;DHT22;12222;50.090;19.702;2022-07-06T08:20:41;19.60;99.90
24017;DHT22;12222;50.090;19.702;2022-07-06T08:26:17;19.50;99.90
24017;DHT22;12222;50.090;19.702;2022-07-06T08:31:38;19.20;99.90
24017;DHT22;12222;50.090;19.702;2022-07-06T08:37:18;18.80;99.90
24017;DHT22;12222;50.090;19.702;2022-07-06T08:42:40;18.40;99.90
24017;DHT22;12222;50.090;19.702;2022-07-06T08:48:04;18.10;99.90
24017;DHT22;12222;50.090;19.702;2022-07-06T08:53:26;17.90;99.90
24017;DHT22;12222;50.090;19.702;2022-07-06T08:58:47;18.00;99.90
24017;DHT22;12222;50.090;19.702;2022-07-06T09:04:09;18.00;99.90
24017;DHT22;12222;50.090;19.702;2022-07-06T09:09:30;20.20;99.90
24017;DHT22;12222;50.090;19.702;2022-07-06T09:14:54;22.40;99.90
24017;DHT22;12222;50.090;19.702;2022-07-06T09:20:15;23.30;99.90
24017;DHT22;12222;50.090;19.702;2022-07-06T09:25:36;21.10;99.90
24017;DHT22;12222;50.090;19.702;2022-07-06T09:31:06;20.60;99.90
24017;DHT22;12222;50.090;19.702;2022-07-06T09:36:48;20.80;99.90
24017;DHT22;12222;50.090;19.702;2022-07-06T09:42:14;20.60;99.90
24017;DHT22;12222;50.090;19.702;2022-07-06T09:47:34;20.60;99.90
24017;DHT22;12222;50.090;19.702;2022-07-06T09:52:56;21.00;99.90
24017;DHT22;12222;50.090;19.702;2022-07-06T09:58:18;21.10;99.90
24017;DHT22;12222;50.090;19.702;2022-07-06T10:03:52;21.60;99.90
24017;DHT22;12222;50.090;19.702;2022-07-06T10:09:13;21.70;99.90
24017;DHT22;12222;50.090;19.702;2022-07-06T10:14:36;22.10;99.90
24017;DHT22;12222;50.090;19.702;2022-07-06T10:19:57;22.30;99.90
24017;DHT22;12222;50.090;19.702;2022-07-06T10:25:25;22.60;99.90
24017;DHT22;12222;50.090;19.702;2022-07-06T10:30:49;22.40;99.90
24017;DHT22;12222;50.090;19.702;2022-07-06T10:36:10;22.50;99.90
24017;DHT22;12222;50.090;19.702;2022-07-06T10:41:33;22.00;99.90
24017;DHT22;12222;50.090;19.702;2022-07-06T10:46:58;22.20;99.90
24017;DHT22;12222;50.090;19.702;2022-07-06T10:52:19;22.10;99.90
24017;DHT22;12222;50.090;19.702;2022-07-06T10:57:52;22.30;99.90
24017;DHT22;12222;50.090;19.702;2022-07-06T11:08:55;23.60;99.90
24017;DHT22;12222;50.090;19.702;2022-07-06T11:14:17;22.80;99.90
24017;DHT22;12222;50.090;19.702;2022-07-06T11:19:58;22.30;99.90
24017;DHT22;12222;50.090;19.702;2022-07-06T11:25:19;22.20;99.90
24017;DHT22;12222;50.090;19.702;2022-07-06T11:30:40;22.60;99.90
24017;DHT22;12222;50.090;19.702;2022-07-06T11:41:34;23.40;99.90
24017;DHT22;12222;50.090;19.702;2022-07-06T11:46:55;23.10;99.90
24017;DHT22;12222;50.090;19.702;2022-07-06T11:52:18;22.70;99.90
24017;DHT22;12222;50.090;19.702;2022-07-06T11:57:39;22.70;99.90
24017;DHT22;12222;50.090;19.702;2022-07-06T12:03:01;22.50;99.90
24017;DHT22;12222;50.090;19.702;2022-07-06T12:08:22;22.70;99.90
24017;DHT22;12222;50.090;19.702;2022-07-06T12:13:42;23.20;99.90
24017;DHT22;12222;50.090;19.702;2022-07-06T12:19:06;22.80;99.90
24017;DHT22;12222;50.090;19.702;2022-07-06T12:24:28;23.20;99.90
24017;DHT22;12222;50.090;19.702;2022-07-06T12:29:51;23.40;99.90
24017;DHT22;12222;50.090;19.702;2022-07-06T12:35:11;23.80;99.90
24017;DHT22;12222;50.090;19.702;2022-07-06T12:40:32;23.70;99.90
24017;DHT22;12222;50.090;19.702;2022-07-06T12:45:52;23.00;99.90
24017;DHT22;12222;50.090;19.702;2022-07-06T12:51:13;22.80;99.90
24017;DHT22;12222;50.090;19.702;2022-07-06T12:56:34;23.10;99.90
24017;DHT22;12222;50.090;19.702;2022-07-06T13:01:54;22.10;99.90
24017;DHT22;12222;50.090;19.702;2022-07-06T13:07:18;21.70;99.90
24017;DHT22;12222;50.090;19.702;2022-07-06T13:12:40;22.00;99.90
24017;DHT22;12222;50.090;19.702;2022-07-06T13:18:01;21.70;99.90
24017;DHT22;12222;50.090;19.702;2022-07-06T13:23:21;22.60;99.90
24017;DHT22;12222;50.090;19.702;2022-07-06T13:28:42;23.00;99.90
24017;DHT22;12222;50.090;19.702;2022-07-06T13:34:03;22.90;99.90
24017;DHT22;12222;50.090;19.702;2022-07-06T13:39:23;22.60;99.90
24017;DHT22;12222;50.090;19.702;2022-07-06T13:44:44;21.70;99.90
24017;DHT22;12222;50.090;19.702;2022-07-06T13:50:05;21.70;99.90
24017;DHT22;12222;50.090;19.702;2022-07-06T13:55:26;21.60;99.90
24017;DHT22;12222;50.090;19.702;2022-07-06T14:00:47;21.40;99.90
24017;DHT22;12222;50.090;19.702;2022-07-06T14:06:09;20.50;99.90
24017;DHT22;12222;50.090;19.702;2022-07-06T14:11:29;19.80;99.90
24017;DHT22;12222;50.090;19.702;2022-07-06T14:16:50;19.60;99.90
24017;DHT22;12222;50.090;19.702;2022-07-06T14:22:12;18.70;99.90
24017;DHT22;12222;50.090;19.702;2022-07-06T14:27:33;18.10;99.90
24017;DHT22;12222;50.090;19.702;2022-07-06T14:32:54;18.20;99.90
24017;DHT22;12222;50.090;19.702;2022-07-06T14:38:15;18.80;99.90
24017;DHT22;12222;50.090;19.702;2022-07-06T14:43:36;18.80;99.90
24017;DHT22;12222;50.090;19.702;2022-07-06T14:48:57;18.30;99.90
24017;DHT22;12222;50.090;19.702;2022-07-06T14:54:18;17.90;99.90
24017;DHT22;12222;50.090;19.702;2022-07-06T14:59:38;17.80;99.90
24017;DHT22;12222;50.090;19.702;2022-07-06T15:04:59;17.70;99.90
24017;DHT22;12222;50.090;19.702;2022-07-06T15:10:19;17.80;99.90
24017;DHT22;12222;50.090;19.702;2022-07-06T15:15:40;17.80;99.90
24017;DHT22;12222;50.090;19.702;2022-07-06T15:21:16;18.20;99.90
24017;DHT22;12222;50.090;19.702;2022-07-06T15:26:37;18.40;99.90
24017;DHT22;12222;50.090;19.702;2022-07-06T15:31:57;18.40;99.90
24017;DHT22;12222;50.090;19.702;2022-07-06T15:37:18;18.20;99.90
24017;DHT22;12222;50.090;19.702;2022-07-06T15:42:39;18.60;99.90
24017;DHT22;12222;50.090;19.702;2022-07-06T15:48:00;19.00;99.90
24017;DHT22;12222;50.090;19.702;2022-07-06T15:53:22;18.90;99.90
24017;DHT22;12222;50.090;19.702;2022-07-06T15:58:43;18.90;99.90
24017;DHT22;12222;50.090;19.702;2022-07-06T16:04:04;19.00;99.90
24017;DHT22;12222;50.090;19.702;2022-07-06T16:09:25;18.90;99.90
24017;DHT22;12222;50.090;19.702;2022-07-06T16:14:45;18.60;99.90
24017;DHT22;12222;50.090;19.702;2022-07-06T16:20:06;18.30;99.90
24017;DHT22;12222;50.090;19.702;2022-07-06T16:25:27;18.30;99.90
24017;DHT22;12222;50.090;19.702;2022-07-06T16:30:48;18.20;99.90
24017;DHT22;12222;50.090;19.702;2022-07-06T16:36:09;18.40;99.90
24017;DHT22;12222;50.090;19.702;2022-07-06T16:41:31;18.50;99.90
24017;DHT22;12222;50.090;19.702;2022-07-06T16:46:51;18.40;99.90
24017;DHT22;12222;50.090;19.702;2022-07-06T16:52:12;18.10;99.90
24017;DHT22;12222;50.090;19.702;2022-07-06T16:57:32;17.90;99.90
24017;DHT22;12222;50.090;19.702;2022-07-06T17:02:53;17.90;99.90
24017;DHT22;12222;50.090;19.702;2022-07-06T17:08:13;18.20;99.90
24017;DHT22;12222;50.090;19.702;2022-07-06T17:13:34;18.00;99.90
24017;DHT22;12222;50.090;19.702;2022-07-06T17:18:55;17.80;99.90
24017;DHT22;12222;50.090;19.702;2022-07-06T17:24:15;17.80;99.90
24017;DHT22;12222;50.090;19.702;2022-07-06T17:29:36;17.80;99.90
24017;DHT22;12222;50.090;19.702;2022-07-06T17:34:57;17.70;99.90
24017;DHT22;12222;50.090;19.702;2022-07-06T17:40:17;17.80;99.90
24017;DHT22;12222;50.090;19.702;2022-07-06T17:45:42;17.90;99.90
24017;DHT22;12222;50.090;19.702;2022-07-06T17:51:02;17.90;99.90
24017;DHT22;12222;50.090;19.702;2022-07-06T17:56:23;17.60;99.90
24017;DHT22;12222;50.090;19.702;2022-07-06T18:01:43;17.40;99.90
24017;DHT22;12222;50.090;19.702;2022-07-06T18:07:04;17.40;99.90
24017;DHT22;12222;50.090;19.702;2022-07-06T18:12:25;17.30;99.90
24017;DHT22;12222;50.090;19.702;2022-07-06T18:17:45;17.40;99.90
24017;DHT22;12222;50.090;19.702;2022-07-06T18:23:18;17.20;99.90
24017;DHT22;12222;50.090;19.702;2022-07-06T18:28:39;16.80;99.90
24017;DHT22;12222;50.090;19.702;2022-07-06T18:33:59;16.30;99.90
24017;DHT22;12222;50.090;19.702;2022-07-06T18:39:19;16.00;99.90
24017;DHT22;12222;50.090;19.702;2022-07-06T18:44:40;15.90;99.90
24017;DHT22;12222;50.090;19.702;2022-07-06T18:50:00;15.90;99.90
24017;DHT22;12222;50.090;19.702;2022-07-06T18:55:21;16.10;99.90
24017;DHT22;12222;50.090;19.702;2022-07-06T19:00:42;16.10;99.90
24017;DHT22;12222;50.090;19.702;2022-07-06T19:06:02;15.90;99.90
24017;DHT22;12222;50.090;19.702;2022-07-06T19:11:23;15.90;99.90
24017;DHT22;12222;50.090;19.702;2022-07-06T19:16:44;15.70;99.90
24017;DHT22;12222;50.090;19.702;2022-07-06T19:22:05;15.60;99.90
24017;DHT22;12222;50.090;19.702;2022-07-06T19:27:26;15.20;99.90
24017;DHT22;12222;50.090;19.702;2022-07-06T19:32:46;14.80;99.90
24017;DHT22;12222;50.090;19.702;2022-07-06T19:38:07;14.70;99.90
24017;DHT22;12222;50.090;19.702;2022-07-06T19:43:28;15.00;99.90
24017;DHT22;12222;50.090;19.702;2022-07-06T19:48:49;15.00;99.90
24017;DHT22;12222;50.090;19.702;2022-07-06T19:54:10;15.00;99.90
24017;DHT22;12222;50.090;19.702;2022-07-06T19:59:31;15.00;99.90
24017;DHT22;12222;50.090;19.702;2022-07-06T20:04:52;14.90;99.90
24017;DHT22;12222;50.090;19.702;2022-07-06T20:10:13;14.90;99.90
24017;DHT22;12222;50.090;19.702;2022-07-06T20:15:34;14.70;99.90
24017;DHT22;12222;50.090;19.702;2022-07-06T20:20:54;14.60;99.90
24017;DHT22;12222;50.090;19.702;2022-07-06T20:26:15;14.30;99.90
24017;DHT22;12222;50.090;19.702;2022-07-06T20:31:36;14.10;99.90
24017;DHT22;12222;50.090;19.702;2022-07-06T20:36:57;13.90;99.90
24017;DHT22;12222;50.090;19.702;2022-07-06T20:42:18;13.80;99.90
24017;DHT22;12222;50.090;19.702;2022-07-06T20:47:38;13.70;99.90
24017;DHT22;12222;50.090;19.702;2022-07-06T20:52:59;13.70;99.90
24017;DHT22;12222;50.090;19.702;2022-07-06T20:58:21;13.60;99.90
24017;DHT22;12222;50.090;19.702;2022-07-06T21:03:42;13.70;99.90
24017;DHT22;12222;50.090;19.702;2022-07-06T21:09:03;13.80;99.90
24017;DHT22;12222;50.090;19.702;2022-07-06T21:14:24;13.90;99.90
24017;DHT22;12222;50.090;19.702;2022-07-06T21:19:44;14.00;99.90
24017;DHT22;12222;50.090;19.702;2022-07-06T21:25:05;13.90;99.90
24017;DHT22;12222;50.090;19.702;2022-07-06T21:30:26;14.00;99.90
24017;DHT22;12222;50.090;19.702;2022-07-06T21:35:47;14.00;99.90
24017;DHT22;12222;50.090;19.702;2022-07-06T21:41:08;14.10;99.90
24017;DHT22;12222;50.090;19.702;2022-07-06T21:46:33;14.30;99.90
24017;DHT22;12222;50.090;19.702;2022-07-06T21:51:59;14.30;99.90
24017;DHT22;12222;50.090;19.702;2022-07-06T21:57:19;14.20;99.90
24017;DHT22;12222;50.090;19.702;2022-07-06T22:02:40;14.20;99.90
24017;DHT22;12222;50.090;19.702;2022-07-06T22:08:01;14.40;99.90
24017;DHT22;12222;50.090;19.702;2022-07-06T22:13:22;14.40;99.90
24017;DHT22;12222;50.090;19.702;2022-07-06T22:19:01;14.40;99.90
24017;DHT22;12222;50.090;19.702;2022-07-06T22:24:22;14.40;99.90
24017;DHT22;12222;50.090;19.702;2022-07-06T22:29:43;14.30;99.90
24017;DHT22;12222;50.090;19.702;2022-07-06T22:35:05;14.10;99.90
24017;DHT22;12222;50.090;19.702;2022-07-06T22:40:26;13.80;99.90
24017;DHT22;12222;50.090;19.702;2022-07-06T22:46:06;13.70;99.90
24017;DHT22;12222;50.090;19.702;2022-07-06T22:51:30;13.60;99.90
24017;DHT22;12222;50.090;19.702;2022-07-06T22:56:50;13.50;99.90
24017;DHT22;12222;50.090;19.702;2022-07-06T23:02:11;13.30;99.90
24017;DHT22;12222;50.090;19.702;2022-07-06T23:07:31;13.30;99.90
24017;DHT22;12222;50.090;19.702;2022-07-06T23:12:52;12.90;99.90
24017;DHT22;12222;50.090;19.702;2022-07-06T23:18:12;12.80;99.90
24017;DHT22;12222;50.090;19.702;2022-07-06T23:23:33;12.60;99.90
24017;DHT22;12222;50.090;19.702;2022-07-06T23:28:54;12.60;99.90
24017;DHT22;12222;50.090;19.702;2022-07-06T23:34:15;12.70;99.90
24017;DHT22;12222;50.090;19.702;2022-07-06T23:39:35;12.70;99.90
24017;DHT22;12222;50.090;19.702;2022-07-06T23:44:56;12.70;99.90
24017;DHT22;12222;50.090;19.702;2022-07-06T23:50:17;12.70;99.90
24017;DHT22;12222;50.090;19.702;2022-07-06T23:55:37;12.60;99.90
